Time;durP1;ratioP1;P1;durP2;ratioP2;P2;SDS_P1;SDS_P2;PMS_P1;PMS_P2;Temp;Humidity;BMP_temperature;BMP_pressure;BME280_temperature;BME280_humidity;BME280_pressure;Samples;Min_cycle;Max_cycle;Signal;HPM_P1;HPM_P2
2021/04/19 00:00:08;;;;;;;6.18;5.68;;;12.50;99.90;;;;;;2104862;28;20073;-71
2021/04/19 00:01:09;;;;;;;6.25;5.75;;;12.50;99.90;;;;;;2104743;28;20038;-71
2021/04/19 00:02:09;;;;;;;4.43;4.05;;;12.40;99.90;;;;;;2104545;28;20031;-71
2021/04/19 00:03:12;;;;;;;6.22;5.55;;;12.40;99.90;;;;;;2105181;28;20024;-71
2021/04/19 00:04:12;;;;;;;7.13;6.43;;;12.40;99.90;;;;;;2105527;28;20088;-71
2021/04/19 00:05:18;;;;;;;5.93;5.32;;;12.40;99.90;;;;;;2105649;28;20012;-72
2021/04/19 00:06:19;;;;;;;7.00;6.32;;;12.30;99.90;;;;;;2105550;28;20141;-71
2021/04/19 00:07:19;;;;;;;5.95;5.15;;;12.30;99.90;;;;;;2104861;28;20031;-71
2021/04/19 00:08:20;;;;;;;7.28;5.63;;;12.30;99.90;;;;;;2105216;28;20059;-71
2021/04/19 00:09:20;;;;;;;4.88;4.47;;;12.30;99.90;;;;;;2105309;28;20519;-71
2021/04/19 00:10:22;;;;;;;6.55;5.90;;;12.30;99.90;;;;;;2105387;28;20055;-71
2021/04/19 00:11:23;;;;;;;6.55;5.95;;;12.20;99.90;;;;;;2104410;28;20436;-71
2021/04/19 00:12:23;;;;;;;6.93;6.32;;;12.20;99.90;;;;;;2100373;28;20051;-71
2021/04/19 00:13:25;;;;;;;6.30;5.80;;;12.20;99.90;;;;;;2096907;28;20029;-71
2021/04/19 00:14:25;;;;;;;6.63;5.95;;;12.20;99.90;;;;;;2102345;28;20019;-71
2021/04/19 00:15:28;;;;;;;6.00;5.50;;;12.20;99.90;;;;;;2105405;28;20027;-71
2021/04/19 00:16:29;;;;;;;8.52;7.13;;;12.20;99.90;;;;;;2105694;28;20016;-71
2021/04/19 00:17:30;;;;;;;7.10;6.43;;;12.10;99.90;;;;;;2105401;28;20035;-71
2021/04/19 00:18:31;;;;;;;5.70;5.20;;;12.10;99.90;;;;;;2104888;28;20024;-71
2021/04/19 00:19:32;;;;;;;6.68;6.00;;;12.10;99.90;;;;;;2104745;28;20027;-71
2021/04/19 00:20:33;;;;;;;7.32;6.63;;;12.10;99.90;;;;;;2103443;28;20059;-71
2021/04/19 00:21:33;;;;;;;6.88;6.28;;;12.10;99.90;;;;;;2096770;28;20023;-71
2021/04/19 00:22:35;;;;;;;6.47;5.88;;;12.00;99.90;;;;;;2101295;28;20039;-71
2021/04/19 00:23:36;;;;;;;7.22;6.53;;;12.00;99.90;;;;;;2104374;28;20052;-71
2021/04/19 00:24:36;;;;;;;5.72;5.22;;;12.00;99.90;;;;;;2104835;28;20043;-71
2021/04/19 00:25:37;;;;;;;7.78;5.88;;;12.00;99.90;;;;;;2105146;28;20024;-71
2021/04/19 00:26:37;;;;;;;6.63;5.80;;;12.00;99.90;;;;;;2105332;28;20024;-71
2021/04/19 00:27:38;;;;;;;6.40;5.35;;;12.00;99.90;;;;;;2097167;28;20059;-71
2021/04/19 00:28:39;;;;;;;6.25;5.68;;;11.90;99.90;;;;;;2096926;28;20063;-71
2021/04/19 00:29:39;;;;;;;7.13;6.43;;;11.90;99.90;;;;;;2097137;28;20025;-71
2021/04/19 00:30:40;;;;;;;7.00;6.30;;;11.90;99.90;;;;;;2097060;28;20107;-71
2021/04/19 00:31:40;;;;;;;6.68;6.13;;;11.90;99.90;;;;;;2096898;28;20029;-71
2021/04/19 00:32:41;;;;;;;6.80;6.13;;;11.90;99.90;;;;;;2096568;28;20082;-71
2021/04/19 00:33:42;;;;;;;7.70;6.35;;;11.80;99.90;;;;;;2096424;28;20033;-71
2021/04/19 00:34:42;;;;;;;6.63;6.03;;;11.80;99.90;;;;;;2096514;28;20467;-71
2021/04/19 00:35:43;;;;;;;7.88;7.18;;;11.80;99.90;;;;;;2097046;28;20067;-71
2021/04/19 00:36:43;;;;;;;6.28;5.68;;;11.80;99.90;;;;;;2099021;28;20020;-71
2021/04/19 00:37:44;;;;;;;7.13;6.43;;;11.80;99.90;;;;;;2098260;28;20066;-71
2021/04/19 00:38:45;;;;;;;6.13;5.55;;;11.80;99.90;;;;;;2096933;28;20027;-71
2021/04/19 00:39:45;;;;;;;6.75;6.18;;;11.80;99.90;;;;;;2096830;28;20095;-71
2021/04/19 00:40:46;;;;;;;6.15;5.55;;;11.70;99.90;;;;;;2091738;28;20078;-71
2021/04/19 00:41:47;;;;;;;6.97;5.55;;;11.70;99.90;;;;;;2092382;28;20033;-71
2021/04/19 00:42:50;;;;;;;6.85;5.40;;;11.70;99.90;;;;;;2095768;28;20581;-71
2021/04/19 00:43:51;;;;;;;6.43;5.82;;;11.70;99.90;;;;;;2105457;28;20087;-71
2021/04/19 00:44:52;;;;;;;6.28;5.68;;;11.70;99.90;;;;;;2102556;28;20558;-71
2021/04/19 00:46:01;;;;;;;8.27;6.78;;;11.60;99.90;;;;;;2097014;28;20577;-71
2021/04/19 00:47:02;;;;;;;7.18;6.47;;;11.70;99.90;;;;;;2096976;28;20033;-71
2021/04/19 00:48:04;;;;;;;7.32;6.65;;;11.70;99.90;;;;;;2097145;28;20024;-71
2021/04/19 00:49:04;;;;;;;7.50;6.80;;;11.70;99.90;;;;;;2099055;28;20019;-71
2021/04/19 00:50:09;;;;;;;7.38;6.65;;;11.70;99.90;;;;;;2102476;28;20092;-71
2021/04/19 00:51:09;;;;;;;6.80;6.00;;;11.70;99.90;;;;;;2101198;28;20466;-71
2021/04/19 00:52:10;;;;;;;7.45;5.25;;;11.60;99.90;;;;;;2095800;28;20531;-71
2021/04/19 00:53:12;;;;;;;6.53;5.85;;;11.60;99.90;;;;;;2097466;28;20527;-71
2021/04/19 00:54:13;;;;;;;5.22;4.80;;;11.60;99.90;;;;;;2096915;28;20104;-71
2021/04/19 00:55:15;;;;;;;7.07;5.05;;;11.60;99.90;;;;;;2104756;28;20707;-71
2021/04/19 00:56:15;;;;;;;5.50;4.82;;;11.60;99.90;;;;;;2101191;28;20530;-71
2021/04/19 00:57:16;;;;;;;7.38;6.68;;;11.60;99.90;;;;;;2096132;28;20426;-71
2021/04/19 00:58:18;;;;;;;6.43;5.82;;;11.60;99.90;;;;;;2097430;28;20028;-71
2021/04/19 00:59:19;;;;;;;6.45;5.75;;;11.60;99.90;;;;;;2097925;28;20012;-71
2021/04/19 01:00:26;;;;;;;5.90;5.40;;;11.60;99.90;;;;;;2105417;28;20023;-70
2021/04/19 01:01:31;;;;;;;7.75;7.05;;;11.60;99.90;;;;;;2104833;28;20031;-71
2021/04/19 01:02:32;;;;;;;7.93;7.13;;;11.60;99.90;;;;;;2103863;28;20031;-70
2021/04/19 01:03:33;;;;;;;7.07;6.38;;;11.60;99.90;;;;;;2104703;28;20020;-70
2021/04/19 01:04:34;;;;;;;5.35;4.95;;;11.60;99.90;;;;;;2105090;28;20036;-70
2021/04/19 01:05:37;;;;;;;7.53;6.82;;;11.60;99.90;;;;;;2104345;28;20505;-71
2021/04/19 01:06:38;;;;;;;5.93;5.43;;;11.60;99.90;;;;;;2100083;28;20054;-71
2021/04/19 01:07:39;;;;;;;7.25;6.63;;;11.60;99.90;;;;;;2096409;28;20609;-71
2021/04/19 01:08:40;;;;;;;8.05;7.35;;;11.60;99.90;;;;;;2096845;28;20028;-70
2021/04/19 01:09:40;;;;;;;8.52;7.50;;;11.60;99.90;;;;;;2096275;28;20028;-70
2021/04/19 01:10:41;;;;;;;7.05;6.35;;;11.60;99.90;;;;;;2096075;28;20029;-71
2021/04/19 01:11:41;;;;;;;6.20;5.70;;;11.60;99.90;;;;;;2096112;28;20029;-70
2021/04/19 01:12:42;;;;;;;8.05;6.00;;;11.60;99.90;;;;;;2096130;28;20033;-71
2021/04/19 01:13:43;;;;;;;6.57;4.88;;;11.50;99.90;;;;;;2096964;28;20032;-70
2021/04/19 01:14:44;;;;;;;6.55;6.00;;;11.60;99.90;;;;;;2096579;28;20565;-71
2021/04/19 01:15:44;;;;;;;5.20;4.80;;;11.60;99.90;;;;;;2096380;28;20020;-70
2021/04/19 01:16:45;;;;;;;5.50;5.00;;;11.50;99.90;;;;;;2096623;28;20423;-70
2021/04/19 01:17:46;;;;;;;5.18;4.65;;;11.60;99.90;;;;;;2096529;28;20091;-70
2021/04/19 01:18:47;;;;;;;4.75;4.35;;;11.60;99.90;;;;;;2097013;28;20048;-70
2021/04/19 01:19:47;;;;;;;5.80;5.30;;;11.50;99.90;;;;;;2096490;28;20388;-70
2021/04/19 01:20:50;;;;;;;5.25;4.82;;;11.50;99.90;;;;;;2095885;28;20025;-70
2021/04/19 01:21:50;;;;;;;6.10;5.47;;;11.60;99.90;;;;;;2095687;28;20106;-71
2021/04/19 01:22:51;;;;;;;7.43;6.72;;;11.60;99.90;;;;;;2095674;28;20051;-70
2021/04/19 01:23:52;;;;;;;7.15;6.55;;;11.60;99.90;;;;;;2099531;28;20047;-70
2021/04/19 01:24:53;;;;;;;6.43;5.72;;;11.50;99.90;;;;;;2104984;28;20029;-70
2021/04/19 01:25:53;;;;;;;7.68;6.97;;;11.60;99.90;;;;;;2105024;28;20103;-70
2021/04/19 01:26:54;;;;;;;7.53;6.82;;;11.60;99.90;;;;;;2104953;28;20028;-70
2021/04/19 01:27:56;;;;;;;7.65;6.97;;;11.50;99.90;;;;;;2104823;28;20090;-70
2021/04/19 01:28:56;;;;;;;6.55;5.95;;;11.60;99.90;;;;;;2105132;28;20024;-70
2021/04/19 01:29:57;;;;;;;8.20;7.40;;;11.60;99.90;;;;;;2105065;28;20035;-70
2021/04/19 01:30:58;;;;;;;5.85;5.40;;;11.60;99.90;;;;;;2104758;28;20444;-70
2021/04/19 01:31:58;;;;;;;7.18;6.47;;;11.60;99.90;;;;;;2104717;28;20024;-70
2021/04/19 01:32:59;;;;;;;5.78;5.28;;;11.60;99.90;;;;;;2104242;28;20039;-70
2021/04/19 01:34:00;;;;;;;7.35;6.65;;;11.60;99.90;;;;;;2104984;28;20313;-70
2021/04/19 01:35:01;;;;;;;6.28;5.72;;;11.60;99.90;;;;;;2101606;28;20086;-71
2021/04/19 01:36:01;;;;;;;5.72;5.22;;;11.60;99.90;;;;;;2088095;28;20472;-71
2021/04/19 01:37:02;;;;;;;7.28;6.22;;;11.60;99.90;;;;;;2092944;28;20036;-70
2021/04/19 01:38:04;;;;;;;6.32;5.82;;;11.60;99.90;;;;;;2096364;28;20025;-70
2021/04/19 01:39:05;;;;;;;8.57;7.78;;;11.60;99.90;;;;;;2088183;28;20047;-70
2021/04/19 01:40:08;;;;;;;7.38;6.68;;;11.60;99.90;;;;;;2091635;28;20609;-70
2021/04/19 01:41:09;;;;;;;8.10;7.03;;;11.60;99.90;;;;;;2095658;28;20025;-71
2021/04/19 01:42:10;;;;;;;7.00;6.00;;;11.60;99.90;;;;;;2095322;28;20102;-71
2021/04/19 01:43:10;;;;;;;6.55;5.95;;;11.60;99.90;;;;;;2096340;28;20036;-71
2021/04/19 01:44:12;;;;;;;8.65;7.03;;;11.60;99.90;;;;;;2096591;28;20028;-70
2021/04/19 01:45:14;;;;;;;7.15;6.40;;;11.60;99.90;;;;;;2096057;28;20067;-70
2021/04/19 01:46:15;;;;;;;7.60;7.00;;;11.60;99.90;;;;;;2093140;28;20027;-71
2021/04/19 01:47:16;;;;;;;6.97;6.30;;;11.60;99.90;;;;;;2098367;28;20024;-71
2021/04/19 01:48:22;;;;;;;8.05;7.20;;;11.60;99.90;;;;;;2104189;28;20469;-70
2021/04/19 01:49:23;;;;;;;8.55;7.75;;;11.60;99.90;;;;;;2099214;28;20036;-70
2021/04/19 01:50:29;;;;;;;7.82;7.03;;;11.60;99.90;;;;;;2098166;28;20020;-70
2021/04/19 01:51:30;;;;;;;7.38;6.63;;;11.60;99.90;;;;;;2099024;28;20033;-70
2021/04/19 01:52:30;;;;;;;7.85;7.13;;;11.60;99.90;;;;;;2095941;28;20025;-71
2021/04/19 01:53:31;;;;;;;8.20;7.43;;;11.60;99.90;;;;;;2103822;28;20036;-71
2021/04/19 01:54:31;;;;;;;9.18;8.20;;;11.60;99.90;;;;;;2100542;28;20033;-71
2021/04/19 01:55:34;;;;;;;9.70;8.88;;;11.60;99.90;;;;;;2102542;28;20028;-71
2021/04/19 01:56:35;;;;;;;10.10;9.13;;;11.60;99.90;;;;;;2098939;28;20020;-71
2021/04/19 01:57:37;;;;;;;11.68;10.02;;;11.70;99.90;;;;;;2096278;28;20032;-71
2021/04/19 01:58:38;;;;;;;13.43;10.80;;;11.60;99.90;;;;;;2096575;28;20024;-71
2021/04/19 01:59:39;;;;;;;12.50;11.15;;;11.60;99.90;;;;;;2096252;28;20031;-71
2021/04/19 02:00:47;;;;;;;11.73;10.52;;;11.70;99.90;;;;;;2096727;28;20029;-71
2021/04/19 02:02:05;;;;;;;12.57;11.05;;;11.70;99.90;;;;;;2097476;28;20025;-71
2021/04/19 02:03:06;;;;;;;11.73;10.68;;;11.60;99.90;;;;;;2097071;28;20070;-70
2021/04/19 02:04:25;;;;;;;11.68;10.30;;;11.60;99.90;;;;;;2097794;28;20024;-70
2021/04/19 02:05:36;;;;;;;12.88;10.90;;;11.60;99.90;;;;;;2097274;28;20020;-70
2021/04/19 02:06:47;;;;;;;;;;;11.60;99.90;;;;;;2097719;28;20467;-70
2021/04/19 02:07:54;;;;;;;14.13;12.75;;;11.50;99.90;;;;;;2094299;28;19974;-70
2021/04/19 02:09:16;;;;;;;13.88;12.27;;;11.50;99.90;;;;;;2097893;28;20031;-70
2021/04/19 02:10:34;;;;;;;15.30;13.80;;;11.50;99.90;;;;;;2097901;28;20055;-70
2021/04/19 02:11:41;;;;;;;15.93;13.95;;;11.60;99.90;;;;;;2096970;28;20105;-70
2021/04/19 02:13:02;;;;;;;15.35;13.85;;;11.50;99.90;;;;;;2088744;28;20037;-70
2021/04/19 02:14:17;;;;;;;15.10;13.70;;;11.50;99.90;;;;;;2091135;28;20086;-70
2021/04/19 02:15:52;;;;;;;14.90;13.48;;;11.50;99.90;;;;;;2096917;28;20046;-70
2021/04/19 02:16:59;;;;;;;15.70;14.10;;;11.50;99.90;;;;;;2097597;28;20421;-70
2021/04/19 02:18:12;;;;;;;15.70;14.30;;;11.50;99.90;;;;;;2097617;28;20028;-70
2021/04/19 02:19:34;;;;;;;15.63;14.02;;;11.50;99.90;;;;;;2097645;28;20017;-70
2021/04/19 02:20:55;;;;;;;14.85;13.35;;;11.50;99.90;;;;;;2097624;28;20024;-70
2021/04/19 02:22:05;;;;;;;16.33;14.73;;;11.50;99.90;;;;;;2096630;28;20058;-70
2021/04/19 02:23:15;;;;;;;16.92;14.40;;;11.50;99.90;;;;;;2097245;28;20107;-70
2021/04/19 02:24:21;;;;;;;15.10;13.70;;;11.50;99.90;;;;;;2097328;28;20032;-71
2021/04/19 02:25:30;;;;;;;15.80;14.10;;;11.50;99.90;;;;;;2097633;28;20048;-70
2021/04/19 02:26:35;;;;;;;15.90;14.30;;;11.50;99.90;;;;;;2097762;28;20604;-70
2021/04/19 02:27:39;;;;;;;15.13;13.73;;;11.50;99.90;;;;;;2097330;28;20051;-70
2021/04/19 02:28:49;;;;;;;15.93;14.40;;;11.50;99.90;;;;;;2097720;28;20024;-70
2021/04/19 02:29:53;;;;;;;16.38;14.75;;;11.60;99.90;;;;;;2097854;28;20027;-70
2021/04/19 02:31:00;;;;;;;15.45;13.95;;;11.60;99.90;;;;;;2097631;28;20024;-70
2021/04/19 02:32:04;;;;;;;16.10;14.50;;;11.50;99.90;;;;;;2096660;28;20529;-70
2021/04/19 02:33:11;;;;;;;15.50;14.02;;;11.60;99.90;;;;;;2096546;28;20024;-70
2021/04/19 02:34:15;;;;;;;15.93;14.43;;;11.60;99.90;;;;;;2096947;28;20025;-70
2021/04/19 02:35:20;;;;;;;16.50;14.85;;;11.50;99.90;;;;;;2097038;28;20096;-70
2021/04/19 02:36:21;;;;;;;14.55;13.25;;;11.50;99.90;;;;;;2096833;28;20388;-70
2021/04/19 02:37:22;;;;;;;16.83;15.25;;;11.50;99.90;;;;;;2097412;28;20027;-70
2021/04/19 02:38:27;;;;;;;16.33;14.80;;;11.50;99.90;;;;;;2097508;28;20400;-70
2021/04/19 02:39:32;;;;;;;16.60;14.95;;;11.50;99.90;;;;;;2097822;28;20514;-70
2021/04/19 02:40:35;;;;;;;18.00;16.20;;;11.60;99.90;;;;;;2104115;28;20411;-70
2021/04/19 02:41:37;;;;;;;16.15;14.65;;;11.50;99.90;;;;;;2105165;28;20111;-70
2021/04/19 02:42:45;;;;;;;16.95;15.35;;;11.60;99.90;;;;;;2105096;28;20058;-70
2021/04/19 02:43:46;;;;;;;15.75;14.35;;;11.60;99.90;;;;;;2106003;28;20031;-70
2021/04/19 02:44:48;;;;;;;16.55;14.90;;;11.60;99.90;;;;;;2105717;28;20495;-70
2021/04/19 02:45:51;;;;;;;17.88;16.17;;;11.60;99.90;;;;;;2105432;28;20040;-70
2021/04/19 02:46:53;;;;;;;17.80;15.95;;;11.60;99.90;;;;;;2105774;28;20035;-70
2021/04/19 02:47:54;;;;;;;18.42;16.83;;;11.60;99.90;;;;;;2105864;28;20383;-70
2021/04/19 02:48:57;;;;;;;20.25;18.23;;;11.60;99.90;;;;;;2105170;28;20475;-70
2021/04/19 02:49:58;;;;;;;21.30;18.98;;;11.70;99.90;;;;;;2101398;28;20020;-70
2021/04/19 02:51:00;;;;;;;20.60;18.70;;;11.70;99.90;;;;;;2099134;28;20060;-70
2021/04/19 02:52:04;;;;;;;21.67;19.38;;;11.60;99.90;;;;;;2096991;28;20123;-70
2021/04/19 02:53:05;;;;;;;20.33;18.52;;;11.70;99.90;;;;;;2096281;28;20079;-70
2021/04/19 02:54:06;;;;;;;21.23;19.27;;;11.60;99.90;;;;;;2097558;28;20028;-70
2021/04/19 02:55:09;;;;;;;21.65;19.58;;;11.70;99.90;;;;;;2100698;28;20055;-70
2021/04/19 02:56:10;;;;;;;21.83;19.48;;;11.70;99.90;;;;;;2103571;28;20401;-70
2021/04/19 02:57:29;;;;;;;21.77;19.67;;;11.70;99.90;;;;;;2097276;28;20103;-70
2021/04/19 02:58:38;;;;;;;23.13;20.92;;;11.70;99.90;;;;;;2097458;28;20135;-71
2021/04/19 02:59:38;;;;;;;22.42;20.27;;;11.70;99.90;;;;;;2097380;28;20051;-70
2021/04/19 03:00:48;;;;;;;23.23;21.00;;;11.70;99.90;;;;;;2097647;28;20460;-70
2021/04/19 03:01:54;;;;;;;24.40;22.13;;;11.70;99.90;;;;;;2096924;28;20348;-70
2021/04/19 03:02:58;;;;;;;24.00;21.70;;;11.70;99.90;;;;;;2096271;28;20107;-70
2021/04/19 03:04:02;;;;;;;25.15;22.75;;;11.60;99.90;;;;;;2096245;28;20071;-70
2021/04/19 03:05:06;;;;;;;24.25;21.95;;;11.60;99.90;;;;;;2096404;28;20025;-70
2021/04/19 03:06:08;;;;;;;22.63;20.60;;;11.70;99.90;;;;;;2100079;28;20064;-70
2021/04/19 03:07:09;;;;;;;24.20;21.70;;;11.60;99.90;;;;;;2096474;28;20510;-70
2021/04/19 03:08:16;;;;;;;21.88;19.88;;;11.70;99.90;;;;;;2104201;28;20116;-70
2021/04/19 03:09:18;;;;;;;22.38;20.27;;;11.60;99.90;;;;;;2105004;28;20048;-70
2021/04/19 03:10:20;;;;;;;22.25;20.23;;;11.60;99.90;;;;;;2104651;28;20055;-70
2021/04/19 03:11:48;;;;;;;22.42;20.42;;;11.60;99.90;;;;;;2104031;28;20440;-70
2021/04/19 03:12:53;;;;;;;21.23;19.23;;;11.60;99.90;;;;;;2103784;28;20032;-70
2021/04/19 03:13:55;;;;;;;21.77;19.83;;;11.60;99.90;;;;;;2103019;28;20024;-70
2021/04/19 03:15:01;;;;;;;22.80;20.65;;;11.60;99.90;;;;;;2103932;28;20095;-70
2021/04/19 03:16:04;;;;;;;21.23;19.23;;;11.70;99.90;;;;;;2104194;28;20023;-70
2021/04/19 03:17:09;;;;;;;21.73;19.67;;;11.70;99.90;;;;;;2103851;28;20493;-70
2021/04/19 03:18:14;;;;;;;20.83;18.83;;;11.70;99.90;;;;;;2103657;28;20031;-70
2021/04/19 03:19:20;;;;;;;20.92;19.02;;;11.70;99.90;;;;;;2098558;28;20126;-70
2021/04/19 03:20:23;;;;;;;20.65;18.65;;;11.60;99.90;;;;;;2095932;28;20062;-70
2021/04/19 03:21:25;;;;;;;21.52;19.42;;;11.70;99.90;;;;;;2096292;28;20017;-70
2021/04/19 03:22:29;;;;;;;20.27;18.38;;;11.70;99.90;;;;;;2095152;28;20036;-70
2021/04/19 03:23:31;;;;;;;19.45;17.50;;;11.70;99.90;;;;;;2096133;28;20020;-70
2021/04/19 03:24:34;;;;;;;18.90;17.10;;;11.70;99.90;;;;;;2095655;28;20127;-70
2021/04/19 03:25:35;;;;;;;20.25;18.35;;;11.70;99.90;;;;;;2096180;28;20028;-70
2021/04/19 03:26:37;;;;;;;19.42;17.65;;;11.60;99.90;;;;;;2096409;28;20060;-70
2021/04/19 03:27:40;;;;;;;20.05;18.27;;;11.70;99.90;;;;;;2096108;28;20036;-70
2021/04/19 03:28:47;;;;;;;19.83;18.02;;;11.70;99.90;;;;;;2098539;28;20352;-70
2021/04/19 03:29:48;;;;;;;20.20;18.30;;;11.70;99.90;;;;;;2104433;28;20035;-70
2021/04/19 03:30:49;;;;;;;22.08;19.98;;;11.60;99.90;;;;;;2104420;28;20027;-70
2021/04/19 03:31:53;;;;;;;22.33;20.20;;;11.70;99.90;;;;;;2104526;28;20024;-70
2021/04/19 03:32:56;;;;;;;22.80;20.77;;;11.60;99.90;;;;;;2103536;28;20027;-70
2021/04/19 03:34:10;;;;;;;22.23;20.23;;;11.60;99.90;;;;;;2096157;28;20020;-70
2021/04/19 03:35:14;;;;;;;24.73;22.33;;;11.60;99.90;;;;;;2096183;28;20025;-70
2021/04/19 03:36:16;;;;;;;25.77;23.27;;;11.60;99.90;;;;;;2096011;28;20028;-70
2021/04/19 03:37:19;;;;;;;29.58;26.50;;;11.60;99.90;;;;;;2096191;28;20012;-70
2021/04/19 03:38:21;;;;;;;28.88;25.88;;;11.60;99.90;;;;;;2096313;28;20012;-70
2021/04/19 03:39:24;;;;;;;30.20;27.10;;;11.60;99.90;;;;;;2096323;28;20251;-70
2021/04/19 03:40:28;;;;;;;29.52;26.73;;;11.60;99.90;;;;;;2096081;28;20013;-70
2021/04/19 03:41:31;;;;;;;30.95;27.80;;;11.60;99.90;;;;;;2096023;28;20072;-70
2021/04/19 03:42:34;;;;;;;32.22;28.83;;;11.60;99.90;;;;;;2095762;28;20239;-70
2021/04/19 03:43:37;;;;;;;32.38;29.27;;;11.60;99.90;;;;;;2096164;28;20031;-70
2021/04/19 03:44:40;;;;;;;31.08;28.15;;;11.60;99.90;;;;;;2096145;28;20025;-70
2021/04/19 03:45:42;;;;;;;28.23;25.50;;;11.60;99.90;;;;;;2096073;28;20575;-70
2021/04/19 03:46:43;;;;;;;30.75;27.75;;;11.60;99.90;;;;;;2097030;28;20567;-70
2021/04/19 03:47:47;;;;;;;31.70;27.05;;;11.70;99.90;;;;;;2100600;28;20036;-70
2021/04/19 03:48:52;;;;;;;30.15;27.25;;;11.60;99.90;;;;;;2095745;28;20077;-70
2021/04/19 03:49:56;;;;;;;30.48;27.38;;;11.70;99.90;;;;;;2096479;28;20130;-70
2021/04/19 03:51:04;;;;;;;30.92;28.02;;;11.70;99.90;;;;;;2103296;28;20032;-70
2021/04/19 03:52:09;;;;;;;30.08;27.23;;;11.70;99.90;;;;;;2087654;28;20032;-70
2021/04/19 03:53:10;;;;;;;28.98;26.20;;;11.70;99.90;;;;;;2091635;28;20025;-70
2021/04/19 03:54:12;;;;;;;30.02;27.02;;;11.70;99.90;;;;;;2096063;28;20785;-70
2021/04/19 03:55:14;;;;;;;30.42;27.40;;;11.70;99.90;;;;;;2094546;28;20031;-70
2021/04/19 03:56:16;;;;;;;30.80;27.90;;;11.70;99.90;;;;;;2092260;28;20056;-70
2021/04/19 03:57:20;;;;;;;30.83;27.90;;;11.80;99.90;;;;;;2100567;28;20042;-70
2021/04/19 03:58:25;;;;;;;30.45;27.58;;;11.80;99.90;;;;;;2103149;28;20016;-70
2021/04/19 03:59:26;;;;;;;31.42;28.40;;;11.80;99.90;;;;;;2103461;28;20020;-70
2021/04/19 04:00:30;;;;;;;31.13;27.95;;;11.80;99.90;;;;;;2097379;28;20027;-70
2021/04/19 04:01:33;;;;;;;28.65;25.95;;;11.80;99.90;;;;;;2097353;28;20099;-70
2021/04/19 04:02:37;;;;;;;30.02;27.17;;;11.80;99.90;;;;;;2098277;28;20104;-70
2021/04/19 04:03:39;;;;;;;30.35;27.23;;;11.80;99.90;;;;;;2104855;28;20020;-70
2021/04/19 04:04:41;;;;;;;30.00;27.15;;;11.80;99.90;;;;;;2104988;28;20039;-70
2021/04/19 04:05:46;;;;;;;30.88;27.98;;;11.80;99.90;;;;;;2105869;28;20063;-70
2021/04/19 04:06:48;;;;;;;29.45;26.65;;;11.80;99.90;;;;;;2105771;28;20146;-70
2021/04/19 04:07:50;;;;;;;25.95;23.55;;;11.80;99.90;;;;;;2105739;28;20117;-70
2021/04/19 04:08:53;;;;;;;29.33;26.52;;;11.80;99.90;;;;;;2105943;28;20024;-70
2021/04/19 04:09:55;;;;;;;28.05;25.25;;;11.80;99.90;;;;;;2104945;28;20024;-70
2021/04/19 04:10:57;;;;;;;30.33;27.35;;;11.80;99.90;;;;;;2105205;28;20503;-70
2021/04/19 04:11:57;;;;;;;30.67;27.73;;;11.80;99.90;;;;;;2105562;28;20036;-70
2021/04/19 04:12:58;;;;;;;31.73;28.70;;;11.80;99.90;;;;;;2105012;28;20051;-70
2021/04/19 04:13:59;;;;;;;32.10;29.05;;;11.80;99.90;;;;;;2105865;28;20027;-70
2021/04/19 04:14:59;;;;;;;31.23;28.00;;;11.80;99.90;;;;;;2105416;28;20028;-70
2021/04/19 04:16:00;;;;;;;32.10;29.10;;;11.80;99.90;;;;;;2105545;28;20036;-70
2021/04/19 04:17:01;;;;;;;33.30;30.20;;;11.80;99.90;;;;;;2098472;28;20498;-70
2021/04/19 04:18:01;;;;;;;33.67;30.13;;;11.80;99.90;;;;;;2097406;28;20032;-70
2021/04/19 04:19:02;;;;;;;33.40;30.20;;;11.80;99.90;;;;;;2096986;28;20047;-70
2021/04/19 04:20:04;;;;;;;30.13;27.27;;;11.80;99.90;;;;;;2097223;28;20020;-70
2021/04/19 04:21:05;;;;;;;29.27;26.48;;;11.80;99.90;;;;;;2096955;28;20100;-70
2021/04/19 04:22:07;;;;;;;29.25;26.25;;;11.80;99.90;;;;;;2097063;28;20036;-70
2021/04/19 04:23:08;;;;;;;30.95;27.98;;;11.80;99.90;;;;;;2096315;28;20025;-70
2021/04/19 04:24:08;;;;;;;30.48;27.45;;;11.80;99.90;;;;;;2096783;28;20024;-70
2021/04/19 04:25:10;;;;;;;31.50;28.42;;;11.80;99.90;;;;;;2097203;28;20036;-70
2021/04/19 04:26:11;;;;;;;30.75;27.70;;;11.80;99.90;;;;;;2097272;28;20073;-70
2021/04/19 04:27:12;;;;;;;29.05;26.25;;;11.80;99.90;;;;;;2096813;28;20024;-70
2021/04/19 04:28:13;;;;;;;29.60;26.70;;;11.80;99.90;;;;;;2097349;28;20028;-70
2021/04/19 04:29:13;;;;;;;28.23;25.63;;;11.80;99.90;;;;;;2104398;28;20065;-70
2021/04/19 04:30:14;;;;;;;27.83;25.13;;;11.80;99.90;;;;;;2101560;28;20028;-70
2021/04/19 04:31:15;;;;;;;28.17;25.58;;;11.80;99.90;;;;;;2096922;28;20025;-70
2021/04/19 04:32:15;;;;;;;29.25;26.48;;;11.80;99.90;;;;;;2099206;28;20020;-70
2021/04/19 04:33:16;;;;;;;25.15;22.85;;;11.80;99.90;;;;;;2102248;28;20070;-70
2021/04/19 04:34:16;;;;;;;23.52;21.35;;;11.80;99.90;;;;;;2101238;28;20568;-70
2021/04/19 04:35:17;;;;;;;28.02;25.30;;;11.80;99.90;;;;;;2101554;28;20036;-70
2021/04/19 04:36:18;;;;;;;27.05;24.45;;;11.80;99.90;;;;;;2093270;28;20048;-70
2021/04/19 04:37:18;;;;;;;26.75;24.33;;;11.80;99.90;;;;;;2092030;28;20079;-70
2021/04/19 04:38:19;;;;;;;26.33;23.90;;;11.90;99.90;;;;;;2092848;28;20033;-70
2021/04/19 04:39:20;;;;;;;27.77;25.13;;;11.80;99.90;;;;;;2088846;28;20044;-70
2021/04/19 04:40:20;;;;;;;28.33;25.80;;;11.90;99.90;;;;;;2094816;28;20503;-70
2021/04/19 04:41:21;;;;;;;27.58;24.77;;;11.90;99.90;;;;;;2091276;28;20021;-70
2021/04/19 04:42:24;;;;;;;29.33;26.55;;;11.90;99.90;;;;;;2092140;28;20037;-70
2021/04/19 04:43:28;;;;;;;29.05;26.15;;;11.90;99.90;;;;;;2090950;28;20059;-70
2021/04/19 04:44:33;;;;;;;27.35;24.77;;;11.90;99.90;;;;;;2091157;28;20029;-70
2021/04/19 04:45:35;;;;;;;26.95;24.45;;;11.90;99.90;;;;;;2093205;28;20576;-70
2021/04/19 04:46:45;;;;;;;28.45;25.45;;;11.90;99.90;;;;;;2094499;28;20028;-70
2021/04/19 04:47:56;;;;;;;;;;;11.90;99.90;;;;;;2090426;28;20542;-70
2021/04/19 04:49:05;;;;;;;28.58;25.85;;;11.80;99.90;;;;;;2091810;28;19927;-70
2021/04/19 04:50:12;;;;;;;31.17;28.17;;;11.80;99.90;;;;;;2094160;28;20016;-70
2021/04/19 04:51:16;;;;;;;31.75;28.73;;;11.80;99.90;;;;;;2094186;28;20135;-69
2021/04/19 04:52:19;;;;;;;30.60;27.60;;;11.80;99.90;;;;;;2090221;28;20104;-69
2021/04/19 04:53:26;;;;;;;29.20;26.40;;;11.80;99.90;;;;;;2095129;28;20024;-70
2021/04/19 04:54:28;;;;;;;31.85;28.75;;;11.80;99.90;;;;;;2095489;28;20023;-70
2021/04/19 04:55:30;;;;;;;31.27;28.27;;;11.90;99.90;;;;;;2091190;28;20043;-70
2021/04/19 04:56:34;;;;;;;31.23;28.15;;;11.90;99.90;;;;;;2089893;28;20028;-70
2021/04/19 04:57:37;;;;;;;31.60;28.50;;;11.90;99.90;;;;;;2093863;28;20024;-70
2021/04/19 04:58:40;;;;;;;30.90;28.02;;;11.80;99.90;;;;;;2097949;28;20103;-70
2021/04/19 04:59:42;;;;;;;29.70;26.88;;;11.90;99.90;;;;;;2103282;28;20437;-70
2021/04/19 05:00:44;;;;;;;31.90;28.80;;;11.90;99.90;;;;;;2094374;28;20036;-70
2021/04/19 05:01:46;;;;;;;30.67;27.63;;;11.90;99.90;;;;;;2096361;28;20027;-70
2021/04/19 05:02:49;;;;;;;30.98;28.08;;;11.90;99.90;;;;;;2096599;28;20541;-70
2021/04/19 05:03:50;;;;;;;32.03;29.02;;;11.90;99.90;;;;;;2090151;28;20427;-70
2021/04/19 05:04:52;;;;;;;31.05;28.15;;;11.90;99.90;;;;;;2092149;28;20033;-70
2021/04/19 05:05:53;;;;;;;31.20;28.17;;;11.90;99.90;;;;;;2096598;28;20112;-70
2021/04/19 05:06:54;;;;;;;32.40;29.13;;;11.90;99.90;;;;;;2096683;28;20103;-70
2021/04/19 05:07:56;;;;;;;31.33;28.38;;;11.90;99.90;;;;;;2097468;28;20356;-70
2021/04/19 05:08:58;;;;;;;30.33;27.33;;;11.90;99.90;;;;;;2089544;28;20040;-70
2021/04/19 05:09:59;;;;;;;29.02;26.23;;;11.90;99.90;;;;;;2090821;28;20020;-70
2021/04/19 05:10:59;;;;;;;30.95;27.85;;;11.90;99.90;;;;;;2091668;28;20025;-70
2021/04/19 05:12:00;;;;;;;31.10;28.10;;;11.90;99.90;;;;;;2092884;28;20017;-70
2021/04/19 05:13:01;;;;;;;31.90;28.70;;;11.90;99.90;;;;;;2091955;28;20028;-70
2021/04/19 05:14:02;;;;;;;30.80;27.90;;;11.90;99.90;;;;;;2091049;28;20661;-70
2021/04/19 05:15:14;;;;;;;31.10;28.08;;;11.90;99.90;;;;;;2089510;28;20092;-70
2021/04/19 05:16:28;;;;;;;30.85;27.95;;;11.90;99.90;;;;;;2091017;28;20029;-70
2021/04/19 05:17:29;;;;;;;30.35;27.52;;;11.90;99.90;;;;;;2090217;28;20024;-70
2021/04/19 05:18:29;;;;;;;31.05;28.08;;;11.90;99.90;;;;;;2090277;28;20075;-70
2021/04/19 05:19:30;;;;;;;31.88;28.88;;;11.90;99.90;;;;;;2093052;28;20016;-70
2021/04/19 05:20:31;;;;;;;32.03;28.92;;;11.90;99.90;;;;;;2091804;28;20029;-70
2021/04/19 05:21:32;;;;;;;31.25;28.27;;;11.90;99.90;;;;;;2090665;28;20083;-70
2021/04/19 05:22:34;;;;;;;33.05;29.85;;;11.90;99.90;;;;;;2091129;28;20029;-70
2021/04/19 05:23:34;;;;;;;32.40;29.10;;;11.90;99.90;;;;;;2090369;28;20025;-70